Terminal Aerodrome Forecast
Issued by NWS Albany, NY

Home | Current Version | Previous Version | Text Only | Print | Product List | Glossary On
Versions: 1 2 3 4 5 6 7 8 9 10 11 12 13 14
000
FTUS41 KALY 201737
TAFPOU
TAF
KPOU 201737Z 2018/2118 22007KT P6SM SCT050 BKN250
     FM202100 26007KT P6SM BKN040 BKN100
      TEMPO 2022/2101 3SM -TSRA BR BKN025CB OVC040
     FM210200 VRB03KT P6SM BKN040
     FM210600 00000KT 6SM BR SCT040
     FM210900 00000KT 3SM BR SCT015
     FM211200 25004KT P6SM SCT025
     FM211500 29008KT P6SM SCT050=

USA.gov is the U.S. government's official web portal to all federal, state and local government web resources and services.